sensor_id;sensor_type;location;lat;lon;timestamp;P1;durP1;ratioP1;P2;durP2;ratioP2
70929;SDS011;58588;48.102;19.682;2023-07-13T00:00:36;11.65;;;5.47;;
70929;SDS011;58588;48.102;19.682;2023-07-13T00:03:38;10.15;;;5.03;;
70929;SDS011;58588;48.102;19.682;2023-07-13T00:06:41;9.65;;;4.95;;
70929;SDS011;58588;48.102;19.682;2023-07-13T00:09:46;9.73;;;4.70;;
70929;SDS011;58588;48.102;19.682;2023-07-13T00:12:48;12.80;;;4.80;;
70929;SDS011;58588;48.102;19.682;2023-07-13T00:15:52;13.00;;;4.63;;
70929;SDS011;58588;48.102;19.682;2023-07-13T00:18:56;10.00;;;4.97;;
70929;SDS011;58588;48.102;19.682;2023-07-13T00:22:00;12.52;;;4.63;;
70929;SDS011;58588;48.102;19.682;2023-07-13T00:25:04;9.90;;;4.57;;
70929;SDS011;58588;48.102;19.682;2023-07-13T00:28:07;9.90;;;4.30;;
70929;SDS011;58588;48.102;19.682;2023-07-13T00:31:09;8.30;;;3.60;;
70929;SDS011;58588;48.102;19.682;2023-07-13T00:34:11;9.88;;;3.90;;
70929;SDS011;58588;48.102;19.682;2023-07-13T00:37:14;8.88;;;3.33;;
70929;SDS011;58588;48.102;19.682;2023-07-13T00:40:19;7.82;;;3.30;;
70929;SDS011;58588;48.102;19.682;2023-07-13T00:43:22;10.87;;;2.97;;
70929;SDS011;58588;48.102;19.682;2023-07-13T00:46:26;8.57;;;3.38;;
70929;SDS011;58588;48.102;19.682;2023-07-13T00:49:30;9.68;;;3.70;;
70929;SDS011;58588;48.102;19.682;2023-07-13T00:52:35;9.07;;;3.35;;
70929;SDS011;58588;48.102;19.682;2023-07-13T00:55:40;9.77;;;3.67;;
70929;SDS011;58588;48.102;19.682;2023-07-13T00:58:43;11.40;;;3.53;;
70929;SDS011;58588;48.102;19.682;2023-07-13T01:01:45;12.07;;;3.50;;
70929;SDS011;58588;48.102;19.682;2023-07-13T01:04:47;9.68;;;3.20;;
70929;SDS011;58588;48.102;19.682;2023-07-13T01:07:50;10.68;;;3.45;;
70929;SDS011;58588;48.102;19.682;2023-07-13T01:10:55;10.10;;;3.50;;
70929;SDS011;58588;48.102;19.682;2023-07-13T01:13:59;11.10;;;3.73;;
70929;SDS011;58588;48.102;19.682;2023-07-13T01:17:01;9.32;;;3.42;;
70929;SDS011;58588;48.102;19.682;2023-07-13T01:20:04;7.43;;;3.10;;
70929;SDS011;58588;48.102;19.682;2023-07-13T01:23:11;10.85;;;3.05;;
70929;SDS011;58588;48.102;19.682;2023-07-13T01:26:13;7.53;;;2.72;;
70929;SDS011;58588;48.102;19.682;2023-07-13T01:29:15;7.80;;;2.87;;
70929;SDS011;58588;48.102;19.682;2023-07-13T01:32:18;7.18;;;3.10;;
70929;SDS011;58588;48.102;19.682;2023-07-13T01:35:24;7.95;;;2.80;;
70929;SDS011;58588;48.102;19.682;2023-07-13T01:38:30;7.25;;;2.83;;
70929;SDS011;58588;48.102;19.682;2023-07-13T01:41:32;7.53;;;3.10;;
70929;SDS011;58588;48.102;19.682;2023-07-13T01:44:34;11.50;;;3.23;;
70929;SDS011;58588;48.102;19.682;2023-07-13T01:47:36;7.30;;;3.03;;
70929;SDS011;58588;48.102;19.682;2023-07-13T01:50:38;9.00;;;3.25;;
70929;SDS011;58588;48.102;19.682;2023-07-13T01:53:41;8.75;;;3.20;;
70929;SDS011;58588;48.102;19.682;2023-07-13T01:56:43;7.18;;;3.08;;
70929;SDS011;58588;48.102;19.682;2023-07-13T01:59:46;8.37;;;3.10;;
70929;SDS011;58588;48.102;19.682;2023-07-13T02:02:48;10.40;;;3.33;;
70929;SDS011;58588;48.102;19.682;2023-07-13T02:05:50;10.82;;;3.60;;
70929;SDS011;58588;48.102;19.682;2023-07-13T02:08:54;8.20;;;3.30;;
70929;SDS011;58588;48.102;19.682;2023-07-13T02:11:56;9.70;;;3.10;;
70929;SDS011;58588;48.102;19.682;2023-07-13T02:14:58;7.40;;;3.10;;
70929;SDS011;58588;48.102;19.682;2023-07-13T02:18:00;8.45;;;3.20;;
70929;SDS011;58588;48.102;19.682;2023-07-13T02:21:03;7.50;;;3.15;;
70929;SDS011;58588;48.102;19.682;2023-07-13T02:24:07;8.45;;;3.08;;
70929;SDS011;58588;48.102;19.682;2023-07-13T02:27:09;9.43;;;3.53;;
70929;SDS011;58588;48.102;19.682;2023-07-13T02:30:11;10.63;;;3.40;;
70929;SDS011;58588;48.102;19.682;2023-07-13T02:33:13;10.52;;;3.60;;
70929;SDS011;58588;48.102;19.682;2023-07-13T02:36:15;9.60;;;3.53;;
70929;SDS011;58588;48.102;19.682;2023-07-13T02:39:20;9.43;;;4.15;;
70929;SDS011;58588;48.102;19.682;2023-07-13T02:42:22;10.80;;;4.15;;
70929;SDS011;58588;48.102;19.682;2023-07-13T02:45:24;7.60;;;2.93;;
70929;SDS011;58588;48.102;19.682;2023-07-13T02:48:26;8.55;;;2.97;;
70929;SDS011;58588;48.102;19.682;2023-07-13T02:51:29;7.60;;;3.10;;
70929;SDS011;58588;48.102;19.682;2023-07-13T02:54:34;7.13;;;3.28;;
70929;SDS011;58588;48.102;19.682;2023-07-13T02:57:37;8.73;;;2.90;;
70929;SDS011;58588;48.102;19.682;2023-07-13T03:00:39;7.43;;;2.90;;
70929;SDS011;58588;48.102;19.682;2023-07-13T03:03:42;5.80;;;2.67;;
70929;SDS011;58588;48.102;19.682;2023-07-13T03:06:44;7.65;;;3.20;;
70929;SDS011;58588;48.102;19.682;2023-07-13T03:09:48;17.10;;;9.25;;
70929;SDS011;58588;48.102;19.682;2023-07-13T03:12:50;10.57;;;4.88;;
70929;SDS011;58588;48.102;19.682;2023-07-13T03:15:52;7.67;;;3.30;;
70929;SDS011;58588;48.102;19.682;2023-07-13T03:18:54;8.80;;;3.10;;
70929;SDS011;58588;48.102;19.682;2023-07-13T03:21:56;8.43;;;2.83;;
70929;SDS011;58588;48.102;19.682;2023-07-13T03:25:00;7.05;;;2.80;;
70929;SDS011;58588;48.102;19.682;2023-07-13T03:28:02;9.68;;;3.47;;
70929;SDS011;58588;48.102;19.682;2023-07-13T03:31:05;9.70;;;3.63;;
70929;SDS011;58588;48.102;19.682;2023-07-13T03:34:09;8.43;;;2.97;;
70929;SDS011;58588;48.102;19.682;2023-07-13T03:37:11;9.60;;;3.05;;
70929;SDS011;58588;48.102;19.682;2023-07-13T03:40:15;9.63;;;3.13;;
70929;SDS011;58588;48.102;19.682;2023-07-13T03:43:17;8.20;;;2.97;;
70929;SDS011;58588;48.102;19.682;2023-07-13T03:46:20;8.17;;;3.03;;
70929;SDS011;58588;48.102;19.682;2023-07-13T03:49:22;8.13;;;3.13;;
70929;SDS011;58588;48.102;19.682;2023-07-13T03:52:24;9.77;;;3.05;;
70929;SDS011;58588;48.102;19.682;2023-07-13T03:55:28;8.10;;;3.22;;
70929;SDS011;58588;48.102;19.682;2023-07-13T03:58:30;6.55;;;2.90;;
70929;SDS011;58588;48.102;19.682;2023-07-13T04:01:34;8.97;;;2.70;;
70929;SDS011;58588;48.102;19.682;2023-07-13T04:04:36;7.70;;;3.10;;
70929;SDS011;58588;48.102;19.682;2023-07-13T04:07:40;12.60;;;3.20;;
70929;SDS011;58588;48.102;19.682;2023-07-13T04:10:44;8.68;;;3.53;;
70929;SDS011;58588;48.102;19.682;2023-07-13T04:13:46;8.57;;;3.40;;
70929;SDS011;58588;48.102;19.682;2023-07-13T04:16:49;11.93;;;3.47;;
70929;SDS011;58588;48.102;19.682;2023-07-13T04:19:51;9.65;;;3.28;;
70929;SDS011;58588;48.102;19.682;2023-07-13T04:22:53;13.80;;;4.45;;
70929;SDS011;58588;48.102;19.682;2023-07-13T04:25:57;9.10;;;3.08;;
70929;SDS011;58588;48.102;19.682;2023-07-13T04:28:59;8.27;;;3.35;;
70929;SDS011;58588;48.102;19.682;2023-07-13T04:32:01;7.20;;;2.73;;
70929;SDS011;58588;48.102;19.682;2023-07-13T04:35:03;9.07;;;3.00;;
70929;SDS011;58588;48.102;19.682;2023-07-13T04:38:06;9.95;;;3.08;;
70929;SDS011;58588;48.102;19.682;2023-07-13T04:41:13;8.63;;;3.28;;
70929;SDS011;58588;48.102;19.682;2023-07-13T04:44:15;7.28;;;3.40;;
70929;SDS011;58588;48.102;19.682;2023-07-13T04:47:17;8.47;;;3.27;;
70929;SDS011;58588;48.102;19.682;2023-07-13T04:50:20;9.20;;;3.42;;
70929;SDS011;58588;48.102;19.682;2023-07-13T04:53:23;9.35;;;3.17;;
70929;SDS011;58588;48.102;19.682;2023-07-13T04:56:27;8.27;;;3.40;;
70929;SDS011;58588;48.102;19.682;2023-07-13T04:59:29;8.77;;;3.15;;
70929;SDS011;58588;48.102;19.682;2023-07-13T05:02:31;7.93;;;3.33;;
70929;SDS011;58588;48.102;19.682;2023-07-13T05:05:33;10.95;;;3.13;;
70929;SDS011;58588;48.102;19.682;2023-07-13T05:08:35;8.95;;;2.95;;
70929;SDS011;58588;48.102;19.682;2023-07-13T05:11:39;10.07;;;3.03;;
70929;SDS011;58588;48.102;19.682;2023-07-13T05:14:41;8.25;;;2.90;;
70929;SDS011;58588;48.102;19.682;2023-07-13T05:17:43;8.70;;;3.00;;
70929;SDS011;58588;48.102;19.682;2023-07-13T05:20:45;7.85;;;2.78;;
70929;SDS011;58588;48.102;19.682;2023-07-13T05:23:47;8.35;;;2.83;;
70929;SDS011;58588;48.102;19.682;2023-07-13T05:26:50;8.55;;;2.85;;
70929;SDS011;58588;48.102;19.682;2023-07-13T05:29:53;6.38;;;2.97;;
70929;SDS011;58588;48.102;19.682;2023-07-13T05:32:55;7.57;;;2.87;;
70929;SDS011;58588;48.102;19.682;2023-07-13T05:35:57;9.73;;;2.80;;
70929;SDS011;58588;48.102;19.682;2023-07-13T05:39:00;7.78;;;2.92;;
70929;SDS011;58588;48.102;19.682;2023-07-13T05:42:05;10.82;;;3.55;;
70929;SDS011;58588;48.102;19.682;2023-07-13T05:45:08;7.93;;;3.20;;
70929;SDS011;58588;48.102;19.682;2023-07-13T05:48:10;14.23;;;3.40;;
70929;SDS011;58588;48.102;19.682;2023-07-13T05:51:13;8.50;;;3.03;;
70929;SDS011;58588;48.102;19.682;2023-07-13T05:54:15;11.63;;;3.28;;
70929;SDS011;58588;48.102;19.682;2023-07-13T05:57:18;10.82;;;3.50;;
70929;SDS011;58588;48.102;19.682;2023-07-13T06:00:20;10.32;;;3.55;;
70929;SDS011;58588;48.102;19.682;2023-07-13T06:03:22;8.67;;;3.50;;
70929;SDS011;58588;48.102;19.682;2023-07-13T06:06:24;12.05;;;3.75;;
70929;SDS011;58588;48.102;19.682;2023-07-13T06:09:26;10.55;;;4.10;;
70929;SDS011;58588;48.102;19.682;2023-07-13T06:12:30;9.05;;;3.70;;
70929;SDS011;58588;48.102;19.682;2023-07-13T06:15:32;9.25;;;3.65;;
70929;SDS011;58588;48.102;19.682;2023-07-13T06:18:34;9.43;;;3.43;;
70929;SDS011;58588;48.102;19.682;2023-07-13T06:21:37;14.82;;;3.70;;
70929;SDS011;58588;48.102;19.682;2023-07-13T06:24:39;12.43;;;3.90;;
70929;SDS011;58588;48.102;19.682;2023-07-13T06:27:42;9.10;;;3.00;;
70929;SDS011;58588;48.102;19.682;2023-07-13T06:30:44;10.23;;;3.17;;
70929;SDS011;58588;48.102;19.682;2023-07-13T06:33:46;8.50;;;3.10;;
70929;SDS011;58588;48.102;19.682;2023-07-13T06:36:48;5.82;;;2.60;;
70929;SDS011;58588;48.102;19.682;2023-07-13T06:39:50;11.18;;;3.30;;
70929;SDS011;58588;48.102;19.682;2023-07-13T06:42:54;8.40;;;3.60;;
70929;SDS011;58588;48.102;19.682;2023-07-13T06:45:55;11.05;;;3.03;;
70929;SDS011;58588;48.102;19.682;2023-07-13T06:48:57;7.33;;;3.33;;
70929;SDS011;58588;48.102;19.682;2023-07-13T06:51:59;9.02;;;3.17;;
70929;SDS011;58588;48.102;19.682;2023-07-13T06:55:01;8.43;;;3.50;;
70929;SDS011;58588;48.102;19.682;2023-07-13T06:58:05;8.27;;;3.17;;
70929;SDS011;58588;48.102;19.682;2023-07-13T07:01:08;11.32;;;3.40;;
70929;SDS011;58588;48.102;19.682;2023-07-13T07:04:10;8.47;;;3.00;;
70929;SDS011;58588;48.102;19.682;2023-07-13T07:07:12;6.25;;;2.90;;
70929;SDS011;58588;48.102;19.682;2023-07-13T07:10:14;9.15;;;3.28;;
70929;SDS011;58588;48.102;19.682;2023-07-13T07:13:18;8.23;;;2.85;;
70929;SDS011;58588;48.102;19.682;2023-07-13T07:16:20;9.18;;;3.20;;
70929;SDS011;58588;48.102;19.682;2023-07-13T07:19:22;7.20;;;3.00;;
70929;SDS011;58588;48.102;19.682;2023-07-13T07:22:24;7.38;;;3.13;;
70929;SDS011;58588;48.102;19.682;2023-07-13T07:25:27;8.52;;;3.17;;
70929;SDS011;58588;48.102;19.682;2023-07-13T07:28:33;9.70;;;3.67;;
70929;SDS011;58588;48.102;19.682;2023-07-13T07:31:35;7.43;;;3.40;;
70929;SDS011;58588;48.102;19.682;2023-07-13T07:34:37;7.73;;;3.17;;
70929;SDS011;58588;48.102;19.682;2023-07-13T07:37:39;8.27;;;3.17;;
70929;SDS011;58588;48.102;19.682;2023-07-13T07:40:41;6.13;;;2.72;;
70929;SDS011;58588;48.102;19.682;2023-07-13T07:43:45;8.07;;;2.92;;
70929;SDS011;58588;48.102;19.682;2023-07-13T07:46:47;6.72;;;3.08;;
70929;SDS011;58588;48.102;19.682;2023-07-13T07:49:49;10.17;;;3.10;;
70929;SDS011;58588;48.102;19.682;2023-07-13T07:52:51;7.40;;;2.80;;
70929;SDS011;58588;48.102;19.682;2023-07-13T07:55:53;7.07;;;2.83;;
70929;SDS011;58588;48.102;19.682;2023-07-13T07:58:57;6.25;;;2.40;;
70929;SDS011;58588;48.102;19.682;2023-07-13T08:01:59;7.93;;;2.70;;
70929;SDS011;58588;48.102;19.682;2023-07-13T08:05:03;6.23;;;2.30;;
70929;SDS011;58588;48.102;19.682;2023-07-13T08:08:05;5.90;;;2.20;;
70929;SDS011;58588;48.102;19.682;2023-07-13T08:11:09;6.18;;;2.33;;
70929;SDS011;58588;48.102;19.682;2023-07-13T08:14:13;5.75;;;2.35;;
70929;SDS011;58588;48.102;19.682;2023-07-13T08:17:16;7.78;;;2.50;;
70929;SDS011;58588;48.102;19.682;2023-07-13T08:20:18;5.37;;;2.10;;
70929;SDS011;58588;48.102;19.682;2023-07-13T08:23:20;6.88;;;2.35;;
70929;SDS011;58588;48.102;19.682;2023-07-13T08:26:27;6.55;;;2.85;;
70929;SDS011;58588;48.102;19.682;2023-07-13T08:29:36;8.73;;;2.47;;
70929;SDS011;58588;48.102;19.682;2023-07-13T08:32:39;8.45;;;2.85;;
70929;SDS011;58588;48.102;19.682;2023-07-13T08:35:46;6.00;;;2.53;;
70929;SDS011;58588;48.102;19.682;2023-07-13T08:38:48;8.38;;;2.40;;
70929;SDS011;58588;48.102;19.682;2023-07-13T08:41:51;6.10;;;2.30;;
70929;SDS011;58588;48.102;19.682;2023-07-13T08:45:03;7.63;;;2.65;;
70929;SDS011;58588;48.102;19.682;2023-07-13T08:48:17;6.15;;;2.60;;
70929;SDS011;58588;48.102;19.682;2023-07-13T08:51:33;6.17;;;2.13;;
70929;SDS011;58588;48.102;19.682;2023-07-13T08:54:41;8.05;;;2.17;;
70929;SDS011;58588;48.102;19.682;2023-07-13T08:57:50;8.30;;;2.50;;
70929;SDS011;58588;48.102;19.682;2023-07-13T09:01:03;5.38;;;2.10;;
70929;SDS011;58588;48.102;19.682;2023-07-13T09:04:14;7.53;;;2.42;;
70929;SDS011;58588;48.102;19.682;2023-07-13T09:07:25;6.03;;;2.10;;
70929;SDS011;58588;48.102;19.682;2023-07-13T09:10:36;6.47;;;2.40;;
70929;SDS011;58588;48.102;19.682;2023-07-13T09:13:43;6.05;;;2.50;;
70929;SDS011;58588;48.102;19.682;2023-07-13T09:16:54;5.97;;;2.25;;
70929;SDS011;58588;48.102;19.682;2023-07-13T09:19:57;7.40;;;2.35;;
70929;SDS011;58588;48.102;19.682;2023-07-13T09:23:04;6.37;;;2.20;;
70929;SDS011;58588;48.102;19.682;2023-07-13T09:26:13;6.88;;;2.20;;
70929;SDS011;58588;48.102;19.682;2023-07-13T09:29:22;5.45;;;2.22;;
70929;SDS011;58588;48.102;19.682;2023-07-13T09:32:31;7.70;;;2.40;;
70929;SDS011;58588;48.102;19.682;2023-07-13T09:35:34;8.10;;;2.40;;
70929;SDS011;58588;48.102;19.682;2023-07-13T09:38:36;6.43;;;2.20;;
70929;SDS011;58588;48.102;19.682;2023-07-13T09:41:40;5.88;;;2.20;;
70929;SDS011;58588;48.102;19.682;2023-07-13T09:44:53;5.93;;;2.15;;
70929;SDS011;58588;48.102;19.682;2023-07-13T09:48:03;6.70;;;1.77;;
70929;SDS011;58588;48.102;19.682;2023-07-13T09:51:12;5.97;;;2.30;;
70929;SDS011;58588;48.102;19.682;2023-07-13T09:54:18;6.40;;;1.70;;
70929;SDS011;58588;48.102;19.682;2023-07-13T09:57:23;5.05;;;1.95;;
70929;SDS011;58588;48.102;19.682;2023-07-13T10:00:26;5.47;;;2.08;;
70929;SDS011;58588;48.102;19.682;2023-07-13T10:03:32;7.13;;;2.15;;
70929;SDS011;58588;48.102;19.682;2023-07-13T10:06:38;5.63;;;2.03;;
70929;SDS011;58588;48.102;19.682;2023-07-13T10:09:43;6.10;;;2.00;;
70929;SDS011;58588;48.102;19.682;2023-07-13T10:12:45;6.32;;;1.98;;
70929;SDS011;58588;48.102;19.682;2023-07-13T10:15:47;5.30;;;2.20;;
70929;SDS011;58588;48.102;19.682;2023-07-13T10:18:52;8.13;;;2.22;;
70929;SDS011;58588;48.102;19.682;2023-07-13T10:21:57;5.32;;;2.30;;
70929;SDS011;58588;48.102;19.682;2023-07-13T10:25:01;7.33;;;2.63;;
70929;SDS011;58588;48.102;19.682;2023-07-13T10:28:04;7.95;;;2.42;;
70929;SDS011;58588;48.102;19.682;2023-07-13T10:31:13;7.93;;;2.63;;
70929;SDS011;58588;48.102;19.682;2023-07-13T10:34:18;6.25;;;2.53;;
70929;SDS011;58588;48.102;19.682;2023-07-13T10:37:22;7.13;;;2.50;;
70929;SDS011;58588;48.102;19.682;2023-07-13T10:40:27;6.97;;;2.60;;
70929;SDS011;58588;48.102;19.682;2023-07-13T10:43:35;7.28;;;2.60;;
70929;SDS011;58588;48.102;19.682;2023-07-13T10:46:41;7.75;;;2.70;;
70929;SDS011;58588;48.102;19.682;2023-07-13T10:49:46;6.32;;;2.70;;
70929;SDS011;58588;48.102;19.682;2023-07-13T10:52:54;9.30;;;2.80;;
70929;SDS011;58588;48.102;19.682;2023-07-13T10:56:02;9.43;;;3.10;;
70929;SDS011;58588;48.102;19.682;2023-07-13T10:59:10;8.75;;;3.03;;
70929;SDS011;58588;48.102;19.682;2023-07-13T11:02:21;7.15;;;2.80;;
70929;SDS011;58588;48.102;19.682;2023-07-13T11:05:30;6.68;;;3.08;;
70929;SDS011;58588;48.102;19.682;2023-07-13T11:08:35;6.78;;;2.75;;
70929;SDS011;58588;48.102;19.682;2023-07-13T11:11:39;8.07;;;2.60;;
70929;SDS011;58588;48.102;19.682;2023-07-13T11:14:44;6.05;;;2.45;;
70929;SDS011;58588;48.102;19.682;2023-07-13T11:18:12;6.53;;;3.10;;
70929;SDS011;58588;48.102;19.682;2023-07-13T11:21:25;7.95;;;2.97;;
70929;SDS011;58588;48.102;19.682;2023-07-13T11:24:47;6.93;;;2.80;;
70929;SDS011;58588;48.102;19.682;2023-07-13T11:28:04;10.27;;;2.70;;
70929;SDS011;58588;48.102;19.682;2023-07-13T11:31:13;7.88;;;2.92;;
70929;SDS011;58588;48.102;19.682;2023-07-13T11:34:18;7.15;;;2.70;;
70929;SDS011;58588;48.102;19.682;2023-07-13T11:37:28;5.80;;;2.70;;
70929;SDS011;58588;48.102;19.682;2023-07-13T11:40:32;6.68;;;2.50;;
70929;SDS011;58588;48.102;19.682;2023-07-13T11:43:34;6.40;;;2.70;;
70929;SDS011;58588;48.102;19.682;2023-07-13T11:46:36;5.53;;;2.20;;
70929;SDS011;58588;48.102;19.682;2023-07-13T11:49:40;7.70;;;2.70;;
70929;SDS011;58588;48.102;19.682;2023-07-13T11:52:45;7.00;;;2.50;;
70929;SDS011;58588;48.102;19.682;2023-07-13T11:55:48;6.95;;;2.58;;
70929;SDS011;58588;48.102;19.682;2023-07-13T11:58:54;6.77;;;2.27;;
70929;SDS011;58588;48.102;19.682;2023-07-13T12:01:57;7.32;;;2.45;;
70929;SDS011;58588;48.102;19.682;2023-07-13T12:05:00;6.10;;;2.45;;
70929;SDS011;58588;48.102;19.682;2023-07-13T12:08:10;5.50;;;2.45;;
70929;SDS011;58588;48.102;19.682;2023-07-13T12:11:15;6.43;;;2.40;;
70929;SDS011;58588;48.102;19.682;2023-07-13T12:14:18;5.40;;;2.27;;
70929;SDS011;58588;48.102;19.682;2023-07-13T12:17:25;8.85;;;2.38;;
70929;SDS011;58588;48.102;19.682;2023-07-13T12:20:28;10.70;;;2.50;;
70929;SDS011;58588;48.102;19.682;2023-07-13T12:23:38;7.70;;;2.25;;
70929;SDS011;58588;48.102;19.682;2023-07-13T12:26:41;8.13;;;2.03;;
70929;SDS011;58588;48.102;19.682;2023-07-13T12:29:48;6.70;;;2.20;;
70929;SDS011;58588;48.102;19.682;2023-07-13T12:32:58;6.28;;;2.30;;
70929;SDS011;58588;48.102;19.682;2023-07-13T12:36:02;6.05;;;2.33;;
70929;SDS011;58588;48.102;19.682;2023-07-13T12:39:13;6.70;;;2.28;;
70929;SDS011;58588;48.102;19.682;2023-07-13T12:42:18;6.05;;;2.20;;
70929;SDS011;58588;48.102;19.682;2023-07-13T12:45:25;5.87;;;2.00;;
70929;SDS011;58588;48.102;19.682;2023-07-13T12:48:29;6.80;;;1.88;;
70929;SDS011;58588;48.102;19.682;2023-07-13T12:51:31;6.05;;;1.70;;
70929;SDS011;58588;48.102;19.682;2023-07-13T12:54:34;5.53;;;1.70;;
70929;SDS011;58588;48.102;19.682;2023-07-13T12:57:41;6.03;;;1.95;;
70929;SDS011;58588;48.102;19.682;2023-07-13T13:00:48;4.53;;;1.43;;
70929;SDS011;58588;48.102;19.682;2023-07-13T13:03:53;6.03;;;1.67;;
70929;SDS011;58588;48.102;19.682;2023-07-13T13:07:03;5.93;;;1.90;;
70929;SDS011;58588;48.102;19.682;2023-07-13T13:10:12;5.20;;;1.83;;
70929;SDS011;58588;48.102;19.682;2023-07-13T13:13:15;5.35;;;1.92;;
70929;SDS011;58588;48.102;19.682;2023-07-13T13:16:19;4.70;;;1.90;;
70929;SDS011;58588;48.102;19.682;2023-07-13T13:19:24;4.78;;;1.80;;
70929;SDS011;58588;48.102;19.682;2023-07-13T13:22:27;6.93;;;2.03;;
70929;SDS011;58588;48.102;19.682;2023-07-13T13:25:30;5.50;;;2.05;;
70929;SDS011;58588;48.102;19.682;2023-07-13T13:28:32;7.28;;;2.30;;
70929;SDS011;58588;48.102;19.682;2023-07-13T13:31:34;7.07;;;1.93;;
70929;SDS011;58588;48.102;19.682;2023-07-13T13:34:36;6.47;;;2.25;;
70929;SDS011;58588;48.102;19.682;2023-07-13T13:37:38;5.90;;;1.85;;
70929;SDS011;58588;48.102;19.682;2023-07-13T13:40:43;4.88;;;1.70;;
70929;SDS011;58588;48.102;19.682;2023-07-13T13:43:46;5.78;;;2.20;;
70929;SDS011;58588;48.102;19.682;2023-07-13T13:46:48;5.10;;;2.00;;
70929;SDS011;58588;48.102;19.682;2023-07-13T13:49:53;4.93;;;2.00;;
70929;SDS011;58588;48.102;19.682;2023-07-13T13:52:56;6.30;;;1.90;;
70929;SDS011;58588;48.102;19.682;2023-07-13T13:55:59;4.90;;;1.92;;
70929;SDS011;58588;48.102;19.682;2023-07-13T13:59:01;5.32;;;1.98;;
70929;SDS011;58588;48.102;19.682;2023-07-13T14:02:07;5.40;;;1.87;;
70929;SDS011;58588;48.102;19.682;2023-07-13T14:05:22;5.00;;;1.95;;
70929;SDS011;58588;48.102;19.682;2023-07-13T14:08:26;5.82;;;2.03;;
70929;SDS011;58588;48.102;19.682;2023-07-13T14:11:29;4.90;;;2.00;;
70929;SDS011;58588;48.102;19.682;2023-07-13T14:14:32;4.90;;;1.83;;
70929;SDS011;58588;48.102;19.682;2023-07-13T14:17:35;5.50;;;2.07;;
70929;SDS011;58588;48.102;19.682;2023-07-13T14:20:37;5.00;;;1.98;;
70929;SDS011;58588;48.102;19.682;2023-07-13T14:23:41;5.13;;;2.08;;
70929;SDS011;58588;48.102;19.682;2023-07-13T14:26:47;4.88;;;1.88;;
70929;SDS011;58588;48.102;19.682;2023-07-13T14:29:49;5.82;;;1.98;;
70929;SDS011;58588;48.102;19.682;2023-07-13T14:32:51;6.43;;;2.10;;
70929;SDS011;58588;48.102;19.682;2023-07-13T14:35:53;4.88;;;1.80;;
70929;SDS011;58588;48.102;19.682;2023-07-13T14:38:56;6.13;;;2.47;;
70929;SDS011;58588;48.102;19.682;2023-07-13T14:42:00;5.35;;;2.00;;
70929;SDS011;58588;48.102;19.682;2023-07-13T14:45:04;6.32;;;2.08;;
70929;SDS011;58588;48.102;19.682;2023-07-13T14:48:11;8.20;;;2.27;;
70929;SDS011;58588;48.102;19.682;2023-07-13T14:51:17;5.85;;;2.33;;
70929;SDS011;58588;48.102;19.682;2023-07-13T14:54:19;6.18;;;2.30;;
70929;SDS011;58588;48.102;19.682;2023-07-13T14:57:22;5.90;;;2.40;;
70929;SDS011;58588;48.102;19.682;2023-07-13T15:00:25;8.50;;;2.67;;
70929;SDS011;58588;48.102;19.682;2023-07-13T15:03:27;11.17;;;2.63;;
70929;SDS011;58588;48.102;19.682;2023-07-13T15:06:29;5.50;;;2.47;;
70929;SDS011;58588;48.102;19.682;2023-07-13T15:09:32;6.60;;;2.53;;
70929;SDS011;58588;48.102;19.682;2023-07-13T15:12:36;6.38;;;2.15;;
70929;SDS011;58588;48.102;19.682;2023-07-13T15:15:38;5.05;;;2.20;;
70929;SDS011;58588;48.102;19.682;2023-07-13T15:18:43;6.93;;;3.00;;
70929;SDS011;58588;48.102;19.682;2023-07-13T15:21:45;8.25;;;2.80;;
70929;SDS011;58588;48.102;19.682;2023-07-13T15:24:48;7.30;;;2.97;;
70929;SDS011;58588;48.102;19.682;2023-07-13T15:27:52;8.45;;;3.00;;
70929;SDS011;58588;48.102;19.682;2023-07-13T15:30:54;5.90;;;2.65;;
70929;SDS011;58588;48.102;19.682;2023-07-13T15:33:57;7.93;;;2.50;;
70929;SDS011;58588;48.102;19.682;2023-07-13T15:36:59;6.22;;;2.53;;
70929;SDS011;58588;48.102;19.682;2023-07-13T15:40:02;11.88;;;3.83;;
70929;SDS011;58588;48.102;19.682;2023-07-13T15:43:08;8.35;;;2.80;;
70929;SDS011;58588;48.102;19.682;2023-07-13T15:46:13;6.45;;;2.80;;
70929;SDS011;58588;48.102;19.682;2023-07-13T15:49:15;14.00;;;4.43;;
70929;SDS011;58588;48.102;19.682;2023-07-13T15:52:17;6.53;;;3.00;;
70929;SDS011;58588;48.102;19.682;2023-07-13T15:55:20;11.70;;;2.55;;
70929;SDS011;58588;48.102;19.682;2023-07-13T15:58:24;5.72;;;2.30;;
70929;SDS011;58588;48.102;19.682;2023-07-13T16:01:28;4.93;;;1.85;;
70929;SDS011;58588;48.102;19.682;2023-07-13T16:04:32;5.93;;;1.87;;
70929;SDS011;58588;48.102;19.682;2023-07-13T16:07:34;6.10;;;1.70;;
70929;SDS011;58588;48.102;19.682;2023-07-13T16:10:37;5.20;;;1.85;;
70929;SDS011;58588;48.102;19.682;2023-07-13T16:13:42;7.22;;;1.70;;
70929;SDS011;58588;48.102;19.682;2023-07-13T16:16:45;5.28;;;1.67;;
70929;SDS011;58588;48.102;19.682;2023-07-13T16:19:48;6.00;;;1.73;;
70929;SDS011;58588;48.102;19.682;2023-07-13T16:22:51;4.90;;;1.60;;
70929;SDS011;58588;48.102;19.682;2023-07-13T16:25:55;5.82;;;1.65;;
70929;SDS011;58588;48.102;19.682;2023-07-13T16:29:01;5.47;;;1.95;;
70929;SDS011;58588;48.102;19.682;2023-07-13T16:32:09;5.18;;;1.80;;
70929;SDS011;58588;48.102;19.682;2023-07-13T16:35:14;5.90;;;1.83;;
70929;SDS011;58588;48.102;19.682;2023-07-13T16:38:18;6.32;;;1.63;;
70929;SDS011;58588;48.102;19.682;2023-07-13T16:41:21;7.72;;;2.28;;
70929;SDS011;58588;48.102;19.682;2023-07-13T16:44:25;13.02;;;5.78;;
70929;SDS011;58588;48.102;19.682;2023-07-13T16:47:28;6.82;;;2.50;;
70929;SDS011;58588;48.102;19.682;2023-07-13T16:50:31;35.40;;;10.40;;
70929;SDS011;58588;48.102;19.682;2023-07-13T16:53:34;11.00;;;4.00;;
70929;SDS011;58588;48.102;19.682;2023-07-13T16:56:36;9.48;;;3.15;;
70929;SDS011;58588;48.102;19.682;2023-07-13T16:59:41;11.57;;;2.55;;
70929;SDS011;58588;48.102;19.682;2023-07-13T17:02:46;10.85;;;2.47;;
70929;SDS011;58588;48.102;19.682;2023-07-13T17:05:48;11.77;;;1.97;;
70929;SDS011;58588;48.102;19.682;2023-07-13T17:08:52;11.18;;;1.80;;
70929;SDS011;58588;48.102;19.682;2023-07-13T17:11:55;5.75;;;1.60;;
70929;SDS011;58588;48.102;19.682;2023-07-13T17:15:00;7.82;;;1.70;;
70929;SDS011;58588;48.102;19.682;2023-07-13T17:18:03;4.75;;;1.58;;
70929;SDS011;58588;48.102;19.682;2023-07-13T17:21:10;4.90;;;1.60;;
70929;SDS011;58588;48.102;19.682;2023-07-13T17:24:16;5.72;;;1.45;;
70929;SDS011;58588;48.102;19.682;2023-07-13T17:27:20;6.53;;;1.42;;
70929;SDS011;58588;48.102;19.682;2023-07-13T17:30:23;5.10;;;1.50;;
70929;SDS011;58588;48.102;19.682;2023-07-13T17:33:27;4.57;;;1.40;;
70929;SDS011;58588;48.102;19.682;2023-07-13T17:36:31;3.93;;;1.20;;
70929;SDS011;58588;48.102;19.682;2023-07-13T17:39:34;4.63;;;1.30;;
70929;SDS011;58588;48.102;19.682;2023-07-13T17:42:37;4.95;;;1.35;;
70929;SDS011;58588;48.102;19.682;2023-07-13T17:45:40;8.23;;;1.40;;
70929;SDS011;58588;48.102;19.682;2023-07-13T17:48:43;10.60;;;1.42;;
70929;SDS011;58588;48.102;19.682;2023-07-13T17:51:47;6.87;;;1.40;;
70929;SDS011;58588;48.102;19.682;2023-07-13T17:54:50;5.55;;;1.40;;
70929;SDS011;58588;48.102;19.682;2023-07-13T17:57:52;5.18;;;1.10;;
70929;SDS011;58588;48.102;19.682;2023-07-13T18:00:56;5.90;;;1.17;;
70929;SDS011;58588;48.102;19.682;2023-07-13T18:03:59;4.18;;;1.00;;
70929;SDS011;58588;48.102;19.682;2023-07-13T18:07:06;5.47;;;1.13;;
70929;SDS011;58588;48.102;19.682;2023-07-13T18:10:17;4.90;;;1.10;;